Time;durP1;ratioP1;P1;durP2;ratioP2;P2;SDS_P1;SDS_P2;PMS_P1;PMS_P2;Temp;Humidity;BMP_temperature;BMP_pressure;BME280_temperature;BME280_humidity;BME280_pressure;Samples;Min_cycle;Max_cycle;Signal;HPM_P1;HPM_P2
2021/01/09 00:02:06;;;;;;;9.45;3.20;;;;;;;18.07;73.53;101350.94;5011043;28;20576;-74
2021/01/09 00:04:32;;;;;;;4.50;2.85;;;;;;;18.09;73.09;101349.16;5010614;28;20046;-73
2021/01/09 00:06:57;;;;;;;10.32;2.90;;;;;;;18.08;73.90;101344.69;4995108;28;20046;-73
2021/01/09 00:09:42;;;;;;;5.88;2.67;;;;;;;18.08;73.19;101339.34;4996968;28;20038;-73
2021/01/09 00:12:08;;;;;;;3.95;2.78;;;;;;;18.08;73.98;101346.47;5012116;28;20037;-74
2021/01/09 00:14:33;;;;;;;18.85;2.95;;;;;;;18.08;73.33;101335.78;5011671;28;20125;-73
2021/01/09 00:16:59;;;;;;;5.32;2.90;;;;;;;18.06;73.56;101327.78;5010046;28;20388;-74
2021/01/09 00:19:24;;;;;;;5.18;2.80;;;;;;;18.03;73.65;101311.78;5006504;28;20567;-75
2021/01/09 00:21:52;;;;;;;6.80;3.10;;;;;;;18.03;73.95;101311.78;5012477;28;20108;-75
2021/01/09 00:24:17;;;;;;;6.15;2.70;;;;;;;18.03;73.61;101305.53;4994852;28;20050;-75
2021/01/09 00:26:43;;;;;;;6.05;2.90;;;;;;;18.00;74.13;101279.72;5012128;28;20228;-74
2021/01/09 00:29:08;;;;;;;9.38;3.30;;;;;;;18.05;73.66;101280.56;4992279;28;20129;-73
2021/01/09 00:31:33;;;;;;;5.43;3.28;;;;;;;18.06;73.58;101290.34;4999919;28;20045;-73
2021/01/09 00:33:59;;;;;;;7.85;2.95;;;;;;;18.07;73.83;101280.56;4994394;28;20052;-73
2021/01/09 00:36:24;;;;;;;12.77;3.20;;;;;;;18.08;74.10;101298.38;5012224;28;20053;-73
2021/01/09 00:38:50;;;;;;;5.03;3.35;;;;;;;18.06;73.76;101297.47;4994846;28;20858;-74
2021/01/09 00:41:15;;;;;;;7.00;2.70;;;;;;;18.06;74.05;101319.75;5011565;28;20058;-74
2021/01/09 00:43:40;;;;;;;6.97;3.22;;;;;;;18.05;73.69;101315.31;5011200;28;20045;-73
2021/01/09 00:46:06;;;;;;;8.77;2.33;;;;;;;18.06;73.50;101303.72;5001975;28;20042;-74
2021/01/09 00:48:31;;;;;;;3.97;2.38;;;;;;;18.06;73.60;101308.16;4999567;28;20586;-74
2021/01/09 00:50:56;;;;;;;4.20;2.65;;;;;;;18.05;73.60;101317.13;5011720;28;20529;-74
2021/01/09 00:53:22;;;;;;;4.53;2.85;;;;;;;18.03;74.07;101290.41;5010528;28;20049;-74
2021/01/09 00:55:47;;;;;;;4.88;2.88;;;;;;;18.04;73.87;101305.53;5011823;28;20180;-74
2021/01/09 00:58:12;;;;;;;3.70;2.88;;;;;;;18.04;73.46;101302.88;5011297;28;20050;-74
2021/01/09 01:00:38;;;;;;;3.30;2.40;;;;;;;18.06;73.62;101301.03;5010684;28;20041;-74
2021/01/09 01:03:03;;;;;;;5.55;2.90;;;;;;;18.02;73.76;101291.28;5010744;28;20173;-73
2021/01/09 01:05:28;;;;;;;5.32;2.75;;;;;;;18.04;74.04;101278.81;5011523;28;20524;-73
2021/01/09 01:07:54;;;;;;;6.18;2.10;;;;;;;18.04;73.99;101283.28;5011253;28;20042;-73
2021/01/09 01:10:19;;;;;;;2.97;2.45;;;;;;;18.03;74.18;101277.03;4993633;28;20042;-74
2021/01/09 01:12:45;;;;;;;4.20;2.72;;;;;;;18.04;73.54;101285.94;4993082;28;20030;-74
2021/01/09 01:15:10;;;;;;;3.97;2.53;;;;;;;18.05;73.68;101295.75;5010427;28;20057;-74
2021/01/09 01:17:35;;;;;;;5.57;2.80;;;;;;;18.02;73.72;101301.97;5011078;28;20376;-74
2021/01/09 01:20:01;;;;;;;4.38;2.70;;;;;;;18.04;74.21;101297.53;5010067;28;20038;-73
2021/01/09 01:22:26;;;;;;;5.88;2.60;;;;;;;18.05;73.63;101295.75;4993063;28;20037;-73
2021/01/09 01:24:51;;;;;;;6.05;2.63;;;;;;;18.05;74.25;101287.72;5011297;28;20052;-73
2021/01/09 01:27:17;;;;;;;3.20;2.50;;;;;;;18.06;73.55;101284.13;5005866;28;20054;-73
2021/01/09 01:29:42;;;;;;;8.60;2.38;;;;;;;18.06;73.77;101298.38;4988903;28;20034;-73
2021/01/09 01:32:07;;;;;;;8.68;2.78;;;;;;;18.06;74.06;101293.03;5010932;28;20387;-73
2021/01/09 01:34:33;;;;;;;9.38;2.42;;;;;;;18.06;73.93;101281.44;5010697;28;20045;-80
2021/01/09 01:36:58;;;;;;;2.78;2.38;;;;;;;18.06;73.78;101287.69;5010653;28;20462;-74
2021/01/09 01:39:24;;;;;;;5.80;2.60;;;;;;;18.06;74.32;101279.66;5005380;28;20529;-73
2021/01/09 01:41:49;;;;;;;9.93;2.70;;;;;;;18.06;73.91;101289.47;4993312;28;20406;-72
2021/01/09 01:44:14;;;;;;;7.10;3.15;;;;;;;18.04;74.18;101284.16;5009949;28;20375;-73
2021/01/09 01:46:40;;;;;;;7.30;2.60;;;;;;;18.07;74.33;101281.44;5011149;28;20030;-73
2021/01/09 01:49:05;;;;;;;3.80;2.60;;;;;;;18.07;73.82;101273.44;4992939;28;20125;-73
2021/01/09 01:51:30;;;;;;;4.93;2.25;;;;;;;18.07;74.29;101264.53;5009961;28;20041;-74
2021/01/09 01:53:56;;;;;;;4.10;2.58;;;;;;;18.07;73.97;101261.84;4996752;28;20439;-73
2021/01/09 01:56:21;;;;;;;7.47;2.45;;;;;;;18.07;73.76;101244.03;5010357;28;20048;-73
2021/01/09 01:58:46;;;;;;;6.90;2.75;;;;;;;18.08;74.38;101253.84;4992866;28;20034;-75
2021/01/09 02:01:12;;;;;;;4.53;2.72;;;;;;;18.07;74.08;101245.81;5010295;28;20046;-74
2021/01/09 02:03:37;;;;;;;2.53;2.33;;;;;;;18.09;73.73;101249.38;5010733;28;20040;-75
2021/01/09 02:06:02;;;;;;;4.68;2.72;;;;;;;18.07;74.02;101241.38;5009163;28;20046;-76
2021/01/09 02:08:28;;;;;;;6.38;2.53;;;;;;;18.08;73.70;101235.13;4994800;28;20169;-75
2021/01/09 02:10:53;;;;;;;9.40;1.92;;;;;;;18.06;74.12;101231.56;4990802;28;20038;-75
2021/01/09 02:13:19;;;;;;;4.40;2.22;;;;;;;18.06;74.39;101234.25;5008892;28;20107;-75
2021/01/09 02:15:44;;;;;;;4.20;2.70;;;;;;;18.08;74.43;101235.13;5010790;28;20042;-74
2021/01/09 02:18:09;;;;;;;3.10;2.28;;;;;;;18.10;74.11;101238.69;4993072;28;20483;-73
2021/01/09 02:20:35;;;;;;;4.35;2.47;;;;;;;18.09;73.94;101250.28;4993300;28;20041;-74
2021/01/09 02:23:00;;;;;;;4.22;2.10;;;;;;;18.11;73.67;101263.63;5003015;28;20038;-73
2021/01/09 02:25:26;;;;;;;4.50;2.20;;;;;;;18.07;73.80;101252.06;5005893;28;20067;-75
2021/01/09 02:27:51;;;;;;;3.30;2.22;;;;;;;18.07;74.08;101254.72;5010756;28;20102;-77
2021/01/09 02:30:16;;;;;;;5.95;2.22;;;;;;;18.08;73.75;101272.53;5009305;28;20406;-77
2021/01/09 02:32:42;;;;;;;3.40;2.25;;;;;;;18.08;74.10;101277.00;5009261;28;20046;-75
2021/01/09 02:35:07;;;;;;;4.90;2.45;;;;;;;18.05;73.98;101266.34;5010556;28;20049;-75
2021/01/09 02:37:33;;;;;;;4.45;2.53;;;;;;;18.05;73.90;101272.53;5014462;28;20041;-75
2021/01/09 02:39:58;;;;;;;3.20;2.20;;;;;;;18.07;73.77;101267.19;4996869;28;20408;-75
2021/01/09 02:42:23;;;;;;;5.05;2.55;;;;;;;18.04;74.23;101272.59;5014508;28;20046;-77
2021/01/09 02:44:49;;;;;;;4.75;2.17;;;;;;;18.05;74.03;101296.59;5011613;28;20042;-75
2021/01/09 02:47:14;;;;;;;16.02;3.00;;;;;;;18.06;73.98;101286.78;5013426;28;20121;-74
2021/01/09 02:49:39;;;;;;;11.95;2.80;;;;;;;18.10;74.02;101280.56;5013837;28;20037;-74
2021/01/09 02:52:05;;;;;;;7.22;2.28;;;;;;;18.11;73.84;101277.88;5012108;28;20112;-74
2021/01/09 02:54:30;;;;;;;4.88;2.42;;;;;;;18.13;73.88;101260.03;5013857;28;20038;-74
2021/01/09 02:56:55;;;;;;;4.75;2.50;;;;;;;18.12;73.37;101271.59;5012929;28;20108;-74
2021/01/09 02:59:21;;;;;;;4.93;2.22;;;;;;;18.11;73.75;101264.53;5007593;28;20068;-74
2021/01/09 03:01:46;;;;;;;8.77;2.17;;;;;;;18.14;73.42;101268.94;4993134;28;20510;-74
2021/01/09 03:04:11;;;;;;;3.33;2.38;;;;;;;18.11;73.99;101256.50;5012368;28;20050;-73
2021/01/09 03:06:37;;;;;;;5.78;2.28;;;;;;;18.11;73.56;101264.53;4996126;28;20076;-74
2021/01/09 03:09:02;;;;;;;4.88;2.30;;;;;;;18.10;73.64;101268.09;4995768;28;20034;-73
2021/01/09 03:11:28;;;;;;;4.90;2.13;;;;;;;18.13;73.53;101286.75;4996263;28;20041;-73
2021/01/09 03:13:53;;;;;;;5.70;2.20;;;;;;;18.11;73.62;101272.53;5013740;28;20038;-73
2021/01/09 03:16:19;;;;;;;14.80;2.47;;;;;;;18.12;73.66;101290.31;5012763;28;20045;-73
2021/01/09 03:18:44;;;;;;;3.03;2.42;;;;;;;18.10;74.08;101289.47;5010241;28;20495;-73
2021/01/09 03:21:10;;;;;;;3.63;1.95;;;;;;;18.11;73.80;101303.72;5008595;28;20045;-72
2021/01/09 03:23:35;;;;;;;7.03;2.50;;;;;;;18.09;73.90;101303.72;5012487;28;20446;-73
2021/01/09 03:26:00;;;;;;;5.38;2.25;;;;;;;18.11;73.56;101303.72;5011814;28;20052;-73
2021/01/09 03:28:26;;;;;;;4.50;2.35;;;;;;;18.11;73.78;101315.28;5012176;28;20042;-73
2021/01/09 03:30:51;;;;;;;3.38;2.08;;;;;;;18.11;73.96;101315.28;5013038;28;20129;-75
2021/01/09 03:33:16;;;;;;;3.80;1.85;;;;;;;18.10;74.05;101313.50;5010285;28;20510;-73
2021/01/09 03:36:02;;;;;;;3.20;2.20;;;;;;;18.10;74.18;101329.53;4998552;28;20050;-73
2021/01/09 03:38:27;;;;;;;2.25;2.05;;;;;;;18.09;73.46;101327.75;5013179;28;20048;-75
2021/01/09 03:40:53;;;;;;;7.68;2.28;;;;;;;18.13;73.76;101334.84;4995823;28;20042;-76
2021/01/09 03:43:18;;;;;;;3.22;1.75;;;;;;;18.12;73.94;101332.19;5012105;28;20061;-75
2021/01/09 03:45:43;;;;;;;4.40;1.52;;;;;;;18.14;74.00;101336.63;5010127;28;20041;-76
2021/01/09 03:48:09;;;;;;;3.80;1.90;;;;;;;18.15;73.35;101349.09;4995119;28;20561;-74
2021/01/09 03:50:34;;;;;;;2.40;1.65;;;;;;;18.15;73.42;101351.78;4995884;28;20042;-74
2021/01/09 03:52:59;;;;;;;3.28;2.15;;;;;;;18.15;73.53;101365.13;4995355;28;20517;-73
2021/01/09 03:55:25;;;;;;;2.55;1.77;;;;;;;18.17;73.82;101352.66;4995546;28;20100;-74
2021/01/09 03:58:10;;;;;;;5.57;2.38;;;;;;;18.16;73.67;101358.91;5012073;28;20042;-74
2021/01/09 04:00:36;;;;;;;4.07;1.98;;;;;;;18.14;73.84;101373.16;4995955;28;20046;-74
2021/01/09 04:03:01;;;;;;;2.22;1.83;;;;;;;18.10;73.88;101374.97;4994385;28;20050;-74
2021/01/09 04:05:26;;;;;;;7.88;1.90;;;;;;;18.10;73.95;101369.63;5012413;28;20395;-73
2021/01/09 04:07:52;;;;;;;4.03;2.20;;;;;;;18.13;73.43;101368.69;5008162;28;20054;-75
2021/01/09 04:10:17;;;;;;;1.92;1.73;;;;;;;18.11;73.60;101365.19;4986875;28;20141;-74
2021/01/09 04:12:42;;;;;;;2.00;1.80;;;;;;;18.10;73.52;101376.75;5000776;28;20038;-74
2021/01/09 04:15:08;;;;;;;4.35;1.88;;;;;;;18.10;73.71;101366.06;4995052;28;20046;-75
2021/01/09 04:17:33;;;;;;;3.97;1.80;;;;;;;18.08;73.60;101374.09;4995784;28;20030;-75
2021/01/09 04:19:59;;;;;;;4.65;2.13;;;;;;;18.09;73.31;101372.31;4992336;28;20050;-75
2021/01/09 04:22:24;;;;;;;3.55;1.80;;;;;;;18.10;73.84;101390.13;5013097;28;20030;-75
2021/01/09 04:24:49;;;;;;;3.45;2.00;;;;;;;18.11;73.49;101403.47;5012352;28;20034;-74
2021/01/09 04:27:15;;;;;;;5.10;1.63;;;;;;;18.10;73.90;101423.06;5012417;28;20129;-74
2021/01/09 04:29:40;;;;;;;2.55;1.40;;;;;;;18.11;73.46;101446.25;5009520;28;20038;-75
2021/01/09 04:32:05;;;;;;;17.10;2.33;;;;;;;18.14;73.29;101450.66;5004657;28;20034;-75
2021/01/09 04:34:31;;;;;;;7.35;1.83;;;;;;;18.18;73.25;101450.63;5011513;28;20038;-74
2021/01/09 04:36:56;;;;;;;3.25;1.80;;;;;;;18.24;72.97;101437.25;5013022;28;20034;-73
2021/01/09 04:39:21;;;;;;;43.67;3.28;;;;;;;18.24;73.42;101434.59;4995197;28;20049;-72
2021/01/09 04:41:47;;;;;;;14.15;2.30;;;;;;;18.21;73.33;101423.91;4994867;28;20105;-73
2021/01/09 04:44:12;;;;;;;16.17;1.95;;;;;;;18.23;73.45;101423.91;5011005;28;20053;-72
2021/01/09 04:46:38;;;;;;;6.63;1.88;;;;;;;18.25;73.07;101424.75;5011735;28;20108;-72
2021/01/09 04:49:03;;;;;;;26.23;1.75;;;;;;;18.31;72.51;101428.28;5009770;28;20037;-72
2021/01/09 04:51:28;;;;;;;42.97;2.15;;;;;;;18.23;73.12;101422.13;5006447;28;20046;-73
2021/01/09 04:53:54;;;;;;;24.48;2.05;;;;;;;18.26;72.99;101435.44;4995235;28;20608;-73
2021/01/09 04:56:19;;;;;;;15.73;1.90;;;;;;;18.23;72.96;101439.94;5011118;28;20049;-73
2021/01/09 04:58:45;;;;;;;20.83;2.15;;;;;;;18.19;73.10;101449.75;4994518;28;20041;-72
2021/01/09 05:01:10;;;;;;;8.77;1.80;;;;;;;18.17;73.16;101451.56;5008522;28;20046;-73
2021/01/09 05:03:35;;;;;;;14.98;2.08;;;;;;;18.16;73.42;101460.47;5011132;28;20042;-72
2021/01/09 05:06:01;;;;;;;21.63;2.00;;;;;;;18.15;73.01;101474.72;4993330;28;20442;-73
2021/01/09 05:08:26;;;;;;;10.77;2.00;;;;;;;18.15;73.64;101495.19;5010242;28;20038;-72
2021/01/09 05:10:51;;;;;;;8.25;1.80;;;;;;;18.18;72.93;101511.25;4993623;28;20046;-72
2021/01/09 05:13:17;;;;;;;31.15;1.73;;;;;;;18.18;73.32;101509.44;5010967;28;20037;-72
2021/01/09 05:15:42;;;;;;;8.10;1.85;;;;;;;18.16;73.48;101508.56;5010632;28;20105;-73
2021/01/09 05:18:07;;;;;;;5.15;1.55;;;;;;;18.14;73.27;101515.69;4992820;28;20044;-73
2021/01/09 05:20:33;;;;;;;7.80;1.65;;;;;;;18.14;73.15;101514.81;5010851;28;20042;-73
2021/01/09 05:22:58;;;;;;;11.38;1.80;;;;;;;18.15;73.46;101514.81;4993587;28;20049;-77
2021/01/09 05:25:24;;;;;;;14.98;1.83;;;;;;;18.17;73.35;101501.44;5010903;28;20045;-72
2021/01/09 05:27:50;;;;;;;4.88;1.60;;;;;;;18.13;73.12;101503.22;4992860;28;20049;-73
2021/01/09 05:30:15;;;;;;;9.52;1.60;;;;;;;18.13;73.63;101495.19;5010452;28;20384;-73
2021/01/09 05:32:40;;;;;;;3.90;1.65;;;;;;;18.13;73.38;101499.66;4993184;28;20037;-74
2021/01/09 05:35:06;;;;;;;3.33;1.33;;;;;;;18.11;73.03;101489.00;4993349;28;20491;-73
2021/01/09 05:37:32;;;;;;;3.88;1.42;;;;;;;18.09;73.24;101485.44;5010858;28;20053;-73
2021/01/09 05:39:57;;;;;;;4.05;1.63;;;;;;;18.10;73.68;101489.00;5010380;28;20398;-72
2021/01/09 05:42:22;;;;;;;4.07;1.48;;;;;;;18.11;73.56;101489.00;5008849;28;20041;-71
2021/01/09 05:44:48;;;;;;;4.20;1.63;;;;;;;18.08;73.03;101483.66;5010669;28;20501;-71
2021/01/09 05:47:13;;;;;;;2.63;1.38;;;;;;;18.08;73.66;101478.31;5010689;28;20745;-72
2021/01/09 05:49:39;;;;;;;2.05;1.13;;;;;;;18.09;73.06;101485.44;5009302;28;20041;-72
2021/01/09 05:52:04;;;;;;;4.03;1.48;;;;;;;18.09;73.05;101474.75;4992442;28;20152;-72
2021/01/09 05:54:29;;;;;;;4.50;1.25;;;;;;;18.10;72.91;101465.84;5010579;28;20046;-71
2021/01/09 05:56:55;;;;;;;1.88;1.35;;;;;;;18.09;73.21;101461.38;4994155;28;20125;-71
2021/01/09 05:59:20;;;;;;;2.28;1.30;;;;;;;18.08;73.13;101451.59;5001190;28;20433;-71
2021/01/09 06:02:05;;;;;;;1.40;1.27;;;;;;;18.05;73.53;101462.25;4979093;28;20057;-71
2021/01/09 06:04:31;;;;;;;1.58;1.30;;;;;;;18.09;73.19;101463.16;5004453;28;20050;-72
2021/01/09 06:06:57;;;;;;;2.35;1.20;;;;;;;18.09;72.91;101464.06;5009821;28;20049;-72
2021/01/09 06:09:22;;;;;;;6.85;1.00;;;;;;;18.09;72.90;101458.72;5011076;28;20042;-72
2021/01/09 06:11:48;;;;;;;3.35;1.30;;;;;;;18.09;73.45;101452.47;5014423;28;20042;-72
2021/01/09 06:14:13;;;;;;;1.25;1.00;;;;;;;18.09;72.73;101464.06;5013655;28;20120;-72
2021/01/09 06:16:38;;;;;;;3.70;1.20;;;;;;;18.10;72.56;101470.28;5013099;28;20121;-71
2021/01/09 06:19:04;;;;;;;2.53;1.10;;;;;;;18.10;73.32;101460.50;4992877;28;20046;-73
2021/01/09 06:21:29;;;;;;;1.58;1.05;;;;;;;18.11;73.19;101464.06;5014750;28;20037;-71
2021/01/09 06:23:55;;;;;;;1.67;1.10;;;;;;;18.10;72.91;101462.28;5013719;28;20057;-72
2021/01/09 06:26:20;;;;;;;1.20;1.02;;;;;;;18.09;73.24;101456.03;5013877;28;20034;-73
2021/01/09 06:28:45;;;;;;;1.33;1.15;;;;;;;18.10;72.91;101462.28;5012789;28;20519;-72
2021/01/09 06:31:11;;;;;;;1.42;1.20;;;;;;;18.12;72.95;101468.47;5011271;28;20038;-72
2021/01/09 06:33:36;;;;;;;1.50;1.30;;;;;;;18.10;73.15;101473.84;5013238;28;20030;-72
2021/01/09 06:36:02;;;;;;;2.30;1.33;;;;;;;18.11;72.73;101490.78;4998336;28;20046;-72
2021/01/09 06:38:27;;;;;;;2.05;1.15;;;;;;;18.09;72.96;101485.44;5004576;28;20396;-72
2021/01/09 06:40:52;;;;;;;2.08;1.15;;;;;;;18.10;73.10;101491.66;5013560;28;20044;-73
2021/01/09 06:43:18;;;;;;;4.03;1.30;;;;;;;18.13;72.97;101507.66;5013233;28;20153;-72
2021/01/09 06:45:43;;;;;;;7.50;1.10;;;;;;;18.15;72.87;101506.78;5014049;28;20041;-73
2021/01/09 06:48:08;;;;;;;3.65;1.10;;;;;;;18.16;73.04;101508.56;5005747;28;20077;-73
2021/01/09 06:50:34;;;;;;;1.98;1.27;;;;;;;18.12;72.77;101504.09;5013337;28;20041;-73
2021/01/09 06:52:59;;;;;;;3.38;1.30;;;;;;;18.12;72.70;101508.56;5013889;28;20590;-73
2021/01/09 06:55:25;;;;;;;5.38;1.30;;;;;;;18.11;72.95;101505.03;4996088;28;20034;-73
2021/01/09 06:57:50;;;;;;;9.95;1.85;;;;;;;18.14;72.96;101515.69;5011117;28;20567;-71
2021/01/09 07:00:15;;;;;;;5.45;1.85;;;;;;;18.18;72.97;101508.56;5011771;28;20383;-71
2021/01/09 07:02:41;;;;;;;15.00;1.88;;;;;;;18.16;72.76;101510.34;5005336;28;20553;-71
2021/01/09 07:05:06;;;;;;;3.35;1.75;;;;;;;18.15;72.97;101512.13;5010842;28;20046;-72
2021/01/09 07:07:32;;;;;;;5.05;1.77;;;;;;;18.15;73.37;101506.78;5011914;28;20061;-71
2021/01/09 07:09:57;;;;;;;3.45;2.03;;;;;;;18.16;73.15;101508.56;4995790;28;20045;-71
2021/01/09 07:12:22;;;;;;;7.72;1.88;;;;;;;18.14;73.15;101510.34;4995417;28;20093;-71
2021/01/09 07:14:48;;;;;;;7.20;1.80;;;;;;;18.17;73.13;101502.34;5011153;28;20037;-71
2021/01/09 07:17:13;;;;;;;3.65;1.77;;;;;;;18.16;73.63;101503.22;5013131;28;20049;-72
2021/01/09 07:19:38;;;;;;;21.02;2.35;;;;;;;18.19;73.15;101492.50;5010366;28;20041;-72
2021/01/09 07:22:04;;;;;;;9.82;2.03;;;;;;;18.21;73.38;101489.84;5012498;28;20498;-71
2021/01/09 07:24:29;;;;;;;5.93;2.03;;;;;;;18.19;73.56;101487.16;5012415;28;20046;-71
2021/01/09 07:26:54;;;;;;;4.53;1.77;;;;;;;18.20;73.43;101472.91;5012617;28;20046;-70
2021/01/09 07:29:20;;;;;;;6.22;1.80;;;;;;;18.18;73.33;101469.34;5010569;28;20065;-70
2021/01/09 07:31:45;;;;;;;6.15;1.85;;;;;;;18.19;73.36;101471.13;5013016;28;20069;-71
2021/01/09 07:34:10;;;;;;;3.53;1.90;;;;;;;18.20;73.31;101472.91;4993770;28;20070;-71
2021/01/09 07:36:36;;;;;;;8.10;2.00;;;;;;;18.21;73.10;101463.09;4990627;28;20053;-70
2021/01/09 07:39:01;;;;;;;3.08;1.65;;;;;;;18.20;73.39;101466.66;5005571;28;20038;-71
2021/01/09 07:41:26;;;;;;;6.90;1.90;;;;;;;18.25;73.20;101459.50;4979442;28;20089;-72
2021/01/09 07:43:52;;;;;;;6.15;1.73;;;;;;;18.28;73.00;101464.84;4992889;28;20046;-72
2021/01/09 07:46:17;;;;;;;5.95;1.90;;;;;;;18.26;72.48;101445.25;4975804;28;20089;-72
2021/01/09 07:48:42;;;;;;;7.97;1.92;;;;;;;18.26;72.75;101454.16;4975339;28;20416;-72
2021/01/09 07:51:08;;;;;;;12.85;2.03;;;;;;;18.27;72.89;101452.38;4975594;28;20042;-71
2021/01/09 07:53:33;;;;;;;10.77;2.20;;;;;;;18.35;73.13;101460.38;4975505;28;20042;-72
2021/01/09 07:55:59;;;;;;;13.40;2.00;;;;;;;18.27;73.06;101461.28;4978905;28;20113;-72
2021/01/09 07:58:24;;;;;;;10.15;1.92;;;;;;;18.30;73.35;101455.06;4974902;28;20062;-72
2021/01/09 08:00:49;;;;;;;10.80;2.90;;;;;;;18.32;73.12;101459.47;4992045;28;20039;-72
2021/01/09 08:03:15;;;;;;;11.70;2.17;;;;;;;18.43;72.59;101455.88;4991180;28;20440;-73
2021/01/09 08:05:40;;;;;;;9.40;2.20;;;;;;;18.40;72.50;101463.91;4975438;28;20062;-73
2021/01/09 08:08:05;;;;;;;16.40;2.28;;;;;;;18.35;72.39;101469.28;4990539;28;20038;-73
2021/01/09 08:10:31;;;;;;;7.75;2.17;;;;;;;18.24;72.29;101477.38;4993712;28;20045;-71
2021/01/09 08:12:56;;;;;;;18.55;2.70;;;;;;;18.21;72.71;101480.03;4991898;28;20043;-72
2021/01/09 08:15:22;;;;;;;30.77;4.28;;;;;;;18.38;73.73;101471.91;4992578;28;20125;-72
2021/01/09 08:17:47;;;;;;;62.80;4.03;;;;;;;18.45;72.56;101491.50;5002211;28;20080;-70
2021/01/09 08:20:12;;;;;;;45.90;5.82;;;;;;;18.32;72.62;101466.59;4973105;28;20047;-70
2021/01/09 08:22:38;;;;;;;27.55;4.80;;;;;;;18.21;72.88;101469.34;4991144;28;20084;-70
2021/01/09 08:25:03;;;;;;;19.05;4.63;;;;;;;18.15;73.32;101472.03;4999088;28;20515;-70
2021/01/09 08:27:29;;;;;;;33.08;5.47;;;;;;;18.14;72.83;101462.25;5011112;28;20398;-70
2021/01/09 08:29:54;;;;;;;17.65;5.10;;;;;;;18.13;72.89;101470.25;5014924;28;20107;-69
2021/01/09 08:32:20;;;;;;;17.73;6.03;;;;;;;18.11;73.01;101477.41;4992730;28;20497;-70
2021/01/09 08:34:45;;;;;;;18.63;5.72;;;;;;;18.11;73.13;101469.41;4993520;28;20092;-69
2021/01/09 08:37:10;;;;;;;15.88;6.13;;;;;;;18.10;73.41;101468.50;5010534;28;20038;-70
2021/01/09 08:39:36;;;;;;;14.57;5.68;;;;;;;18.09;73.27;101465.84;4990075;28;20056;-70
2021/01/09 08:42:01;;;;;;;15.35;5.75;;;;;;;18.08;73.75;101461.38;4994708;28;20121;-71
2021/01/09 08:44:26;;;;;;;20.02;5.78;;;;;;;18.09;73.81;101464.06;5011797;28;20034;-70
2021/01/09 08:46:52;;;;;;;15.82;6.05;;;;;;;18.08;73.49;101451.59;5010516;28;20038;-70
2021/01/09 08:49:17;;;;;;;18.88;5.40;;;;;;;18.08;73.30;101456.03;4996951;28;20078;-71
2021/01/09 08:51:42;;;;;;;13.10;5.47;;;;;;;18.09;73.81;101453.38;4991631;28;20045;-70
2021/01/09 08:54:09;;;;;;;15.15;5.75;;;;;;;18.09;73.22;101457.81;4990970;28;20038;-70
2021/01/09 08:56:34;;;;;;;21.63;5.18;;;;;;;18.09;73.11;101466.72;4991256;28;20090;-70
2021/01/09 08:59:00;;;;;;;15.30;5.72;;;;;;;18.10;73.38;101441.78;4973227;28;20813;-72
2021/01/09 09:01:26;;;;;;;11.85;5.20;;;;;;;18.12;73.33;101426.59;4991133;28;20053;-71
2021/01/09 09:03:51;;;;;;;17.60;6.22;;;;;;;18.16;72.95;101441.75;5002206;28;20046;-73
2021/01/09 09:06:16;;;;;;;33.17;6.97;;;;;;;18.27;73.69;101437.22;4981455;28;20038;-71
2021/01/09 09:08:42;;;;;;;59.85;6.65;;;;;;;18.39;73.12;101433.59;4973431;28;20038;-71
2021/01/09 09:11:07;;;;;;;58.53;8.00;;;;;;;18.37;73.37;101429.19;4998749;28;20153;-71
2021/01/09 09:13:32;;;;;;;42.50;8.00;;;;;;;18.27;73.33;101445.25;4989498;28;20377;-71
2021/01/09 09:15:58;;;;;;;42.70;7.72;;;;;;;18.19;74.14;101431.03;5018364;28;20041;-71
2021/01/09 09:18:23;;;;;;;40.13;7.13;;;;;;;18.26;74.03;101424.75;5007863;28;20052;-70
2021/01/09 09:20:48;;;;;;;53.35;7.25;;;;;;;18.20;73.98;101434.59;5008798;28;20038;-71
2021/01/09 09:23:14;;;;;;;40.05;8.13;;;;;;;18.16;74.18;101431.06;5018885;28;20053;-73
2021/01/09 09:25:39;;;;;;;35.92;6.82;;;;;;;18.14;73.87;101430.16;5018709;28;20065;-71
2021/01/09 09:28:05;;;;;;;24.60;6.68;;;;;;;18.14;74.23;101429.28;5010284;28;20406;-71
2021/01/09 09:30:30;;;;;;;30.58;7.03;;;;;;;18.11;74.20;101414.16;5010787;28;20030;-71
2021/01/09 09:32:55;;;;;;;26.77;6.82;;;;;;;18.12;74.03;101420.38;4991022;28;20065;-71
2021/01/09 09:35:21;;;;;;;17.67;6.68;;;;;;;18.10;74.22;101412.38;4990161;28;20066;-71
2021/01/09 09:37:46;;;;;;;21.63;6.50;;;;;;;18.09;74.61;101426.63;4990687;28;20062;-71
2021/01/09 09:40:11;;;;;;;16.55;6.10;;;;;;;18.09;74.68;101431.97;4999865;28;20406;-71
2021/01/09 09:42:37;;;;;;;15.35;6.03;;;;;;;18.10;74.48;101428.41;5006520;28;20521;-72
2021/01/09 09:45:02;;;;;;;24.75;6.20;;;;;;;18.09;74.53;101410.59;4999014;28;20411;-71
2021/01/09 09:47:27;;;;;;;22.73;6.57;;;;;;;18.08;74.90;101392.78;5009565;28;20042;-70
2021/01/09 09:49:53;;;;;;;17.73;5.68;;;;;;;18.09;74.37;101399.91;5010300;28;20061;-71
2021/01/09 09:52:18;;;;;;;15.55;5.43;;;;;;;18.10;74.50;101409.72;5002201;28;20042;-71
2021/01/09 09:54:44;;;;;;;13.90;5.43;;;;;;;18.12;74.41;101386.53;4980902;28;20049;-71
2021/01/09 09:57:09;;;;;;;14.00;5.60;;;;;;;18.13;74.55;101390.09;5001046;28;20034;-72
2021/01/09 09:59:34;;;;;;;15.82;4.68;;;;;;;18.12;74.53;101378.50;5010464;28;20733;-71
2021/01/09 10:02:00;;;;;;;30.60;5.85;;;;;;;18.16;74.21;101372.25;4995203;28;20081;-72
2021/01/09 10:04:25;;;;;;;28.10;5.78;;;;;;;18.18;74.60;101366.91;4989904;28;20042;-71
2021/01/09 10:06:51;;;;;;;62.72;6.85;;;;;;;18.28;74.77;101366.84;4973250;28;20046;-72
2021/01/09 10:09:19;;;;;;;157.10;9.98;;;;;;;18.39;74.47;101345.38;4973376;28;20050;-73
2021/01/09 10:11:44;;;;;;;251.20;13.93;;;;;;;18.37;75.11;101357.88;4972931;28;20058;-76
2021/01/09 10:14:10;;;;;;;262.98;15.60;;;;;;;18.32;74.79;101354.31;4970433;28;20073;-75
2021/01/09 10:16:35;;;;;;;205.30;13.63;;;;;;;18.26;75.00;101344.56;4973382;28;20054;-74
2021/01/09 10:19:01;;;;;;;171.43;12.63;;;;;;;18.23;75.30;101352.63;4971905;28;20030;-73
2021/01/09 10:21:26;;;;;;;146.63;11.93;;;;;;;18.21;74.96;101338.38;4969066;28;20113;-74
2021/01/09 10:23:51;;;;;;;105.32;10.50;;;;;;;18.22;74.72;101331.25;4973237;28;20055;-72
2021/01/09 10:26:17;;;;;;;94.43;9.18;;;;;;;18.19;74.48;101334.81;4990417;28;20085;-70
2021/01/09 10:28:42;;;;;;;66.38;7.97;;;;;;;18.19;74.92;101326.78;4970854;28;20150;-71
2021/01/09 10:31:07;;;;;;;99.28;9.30;;;;;;;18.20;75.32;101322.34;4977610;28;20154;-72
2021/01/09 10:33:33;;;;;;;65.05;8.20;;;;;;;18.18;75.17;101313.47;4965879;28;20049;-75
2021/01/09 10:35:58;;;;;;;48.50;7.40;;;;;;;18.19;74.65;101312.53;4970137;28;20054;-72
2021/01/09 10:38:23;;;;;;;59.45;8.38;;;;;;;18.18;74.90;101300.97;4987881;28;20042;-71
2021/01/09 10:40:49;;;;;;;43.55;6.93;;;;;;;18.19;74.85;101304.53;4973067;28;20046;-72
2021/01/09 10:43:14;;;;;;;43.45;7.53;;;;;;;18.19;75.10;101310.75;4986736;28;20121;-72
2021/01/09 10:45:40;;;;;;;35.90;6.90;;;;;;;18.18;74.59;101308.13;4987498;28;20053;-71
2021/01/09 10:48:05;;;;;;;36.03;7.53;;;;;;;18.19;74.79;101310.75;4970923;28;20038;-71
2021/01/09 10:50:31;;;;;;;24.65;7.13;;;;;;;18.16;74.85;101294.75;4988975;28;20038;-72
2021/01/09 10:52:56;;;;;;;38.30;7.15;;;;;;;18.17;74.73;101277.84;4985856;28;20057;-71
2021/01/09 10:55:21;;;;;;;25.35;7.55;;;;;;;18.18;74.86;101281.41;5006414;28;20030;-74
2021/01/09 10:57:47;;;;;;;34.90;7.38;;;;;;;18.20;75.00;101306.31;4992096;28;20038;-72
2021/01/09 11:00:15;;;;;;;20.77;6.70;;;;;;;18.22;74.70;101294.72;4991645;28;20046;-71
2021/01/09 11:02:40;;;;;;;21.98;6.65;;;;;;;18.20;74.56;101291.16;4993273;28;20049;-70
2021/01/09 11:05:05;;;;;;;29.48;7.10;;;;;;;18.20;75.14;101280.47;5005619;28;20046;-70
2021/01/09 11:07:31;;;;;;;24.15;6.05;;;;;;;18.21;75.26;101281.34;4974667;28;20034;-68
2021/01/09 11:09:56;;;;;;;24.25;7.05;;;;;;;18.18;75.01;101274.22;4983807;28;20487;-68
2021/01/09 11:12:21;;;;;;;21.50;5.93;;;;;;;18.20;74.89;101263.53;5012532;28;20053;-72
2021/01/09 11:14:47;;;;;;;20.38;6.25;;;;;;;18.19;74.89;101262.66;5012879;28;20545;-72